• Join FlightAware (Why Join?)
  • Login
  • US Flag 
12:22PM EST


 

Airport Tracker/Info


-or-


 

Live Flight TrackerFlight Track Log ✈ SKW6195 ✈ 15.09.2013 ✈ KBZN - KDEN

Flight Track Log - Related Links

Times and Time Zones

All times are in EDT time to prevent confusion due to time zone crossing. See the SKW6195 flight status page for this flight to view local times or setup timezone preferences in your user account.

Time Position Orientation Groundspeed Altitude Reporting Facility
EDT Latitude Longitude Course Direction KTS MPH feet Rate Location/Type
03:53PM 45.7614 -111.1294 140° Southeast 160 184 5,200  Level Salt Lake Center
03:54PM 45.7200 -111.0700 135° Southeast 190 219 7,600 2,040 Climbing Salt Lake Center
03:55PM 45.6753 -111.0033 134° Southeast 222 255 9,500 1,740 Climbing Salt Lake Center
03:56PM 45.2928 -110.5544 150° Southeast  Level Estimated
03:56PM 45.6569 -110.9042 105° East 259 298 11,300  Level Salt Lake Center
03:57PM 45.2117 -110.4558 135° Southeast  Level Estimated
03:57PM 45.6433 -110.7936 100° East 279 321 13,100  Level Salt Lake Center
03:58PM 45.1303 -110.3578 140° Southeast  Level FlightAware Approximate
03:58PM 45.5742 -110.7325 148° Southeast 293 337 14,600  Level Salt Lake Center
03:59PM 45.5025 -110.6661 147° Southeast 302 348 16,300 1,620 Climbing Salt Lake Center
04:00PM 45.4228 -110.5900 146° Southeast 312 359 18,000 1,500 Climbing Salt Lake Center
04:01PM 45.3564 -110.5308 148° Southeast 305 351 19,500 1,320 Climbing Salt Lake Center
04:02PM 45.2833 -110.4644 147° Southeast 313 360 20,800 1,140 Climbing Salt Lake Center
04:03PM 45.2092 -110.3964 147° Southeast 318 366 21,900 1,140 Climbing Salt Lake Center
04:04PM 45.1189 -110.3144 147° Southeast 322 371 23,200 1,020 Climbing Salt Lake Center
04:05PM 45.0486 -110.2492 147° Southeast 331 381 24,000 900 Climbing Salt Lake Center
04:06PM 44.9611 -110.1692 147° Southeast 333 383 25,100 960 Climbing Salt Lake Center
04:07PM 44.8919 -110.0867 140° Southeast 339 390 26,000 720 Climbing Salt Lake Center
04:08PM 44.8125 -109.9856 138° Southeast 344 396 26,700 360 Climbing Salt Lake Center
04:09PM 44.7406 -109.8939 138° Southeast 364 419 26,800 60 Climbing Salt Lake Center
04:10PM 44.6536 -109.7811 137° Southeast 382 440 26,900 300 Climbing Salt Lake Center
04:11PM 44.5725 -109.6800 138° Southeast 393 452 27,500 480 Climbing Salt Lake Center
04:12PM 44.5033 -109.5867 136° Southeast 378 435 27,900 480 Climbing Salt Lake Center
04:13PM 44.4094 -109.4722 139° Southeast 392 451 28,500 480 Climbing Salt Lake Center
04:14PM 44.3331 -109.3750 138° Southeast 394 453 29,000 480 Climbing Salt Lake Center
04:15PM 44.2514 -109.2733 138° Southeast 395 455 29,500 480 Climbing Salt Lake Center
04:16PM 44.1536 -109.1503 138° Southeast 396 456 30,100 480 Climbing Salt Lake Center
04:17PM 44.0719 -109.0508 139° Southeast 395 455 30,600 480 Climbing Salt Lake Center
04:19PM 43.9903 -108.9483 138° Southeast 396 456 31,100 480 Climbing Salt Lake Center
04:20PM 43.9089 -108.8447 137° Southeast 397 457 31,600 480 Climbing Salt Lake Center
04:21PM 43.8286 -108.7475 139° Southeast 388 447 32,100 480 Climbing Salt Lake Center
04:22PM 43.7478 -108.6494 139° Southeast 387 445 32,600 420 Climbing Salt Lake Center
04:23PM 43.6519 -108.5314 138° Southeast 385 443 33,000 180 Climbing Salt Lake Center
04:24PM 43.5711 -108.4331 139° Southeast 389 448 33,000  Level Salt Lake Center
04:25PM 43.4869 -108.3322 139° Southeast 398 458 33,000  Level Salt Lake Center
04:26PM 43.3989 -108.2347 141° Southeast 405 466 33,000  Level Salt Lake Center
04:27PM 43.3072 -108.1375 142° Southeast 415 478 33,000  Level Salt Lake Center
04:28PM 43.2150 -108.0369 142° Southeast 423 487 33,000  Level Salt Lake Center
04:29PM 43.1022 -107.9200 143° Southeast 426 490 33,000  Level Salt Lake Center
04:30PM 43.0086 -107.8217 142° Southeast 427 491 33,000  Level Salt Lake Center
04:31PM 42.9231 -107.7303 142° Southeast 424 488 33,000  Level Salt Lake Center
04:32PM 42.8175 -107.6211 143° Southeast 426 490 33,000  Level Salt Lake Center
04:33PM 42.7269 -107.5269 143° Southeast 426 490 33,000  Level Salt Lake Center
04:34PM 42.6222 -107.4175 142° Southeast 425 489 33,000  Level Salt Lake Center
04:35PM 42.5308 -107.3236 143° Southeast 428 493 33,000  Level Salt Lake Center
04:36PM 42.4250 -107.2153 143° Southeast 426 490 33,000  Level Salt Lake Center
04:37PM 42.3344 -107.1236 143° Southeast 426 490 33,000  Level Salt Lake Center
04:38PM 42.2236 -107.0306 148° Southeast 420 483 33,000  Level Salt Lake Center
04:39PM 42.1250 -106.9558 151° Southeast 422 486 33,000  Level Salt Lake Center
04:40PM 42.0256 -106.8819 151° Southeast 424 488 33,000  Level Salt Lake Center
04:41PM 41.9119 -106.7956 150° Southeast 422 486 33,000  Level Salt Lake Center
04:42PM 41.8144 -106.7214 150° Southeast 423 487 33,000  Level Salt Lake Center
04:43PM 41.7122 -106.6461 151° Southeast 418 481 33,000  Level Salt Lake Center
04:44PM 41.5956 -106.5594 151° Southeast 426 490 33,000  Level Salt Lake Center
04:45PM 41.4839 -106.4769 151° Southeast 426 490 33,000  Level Salt Lake Center
04:47PM 41.3656 -106.3881 151° Southeast 425 489 33,000  Level Denver Center
04:48PM 41.2528 -106.3047 151° Southeast 427 491 33,000  Level Denver Center
04:49PM 41.1358 -106.2192 151° Southeast 429 494 33,000  Level Denver Center
04:50PM 41.0322 -106.1425 151° Southeast 431 496 33,000  Level Denver Center
04:51PM 40.9350 -106.0436 142° Southeast 433 498 33,000  Level Denver Center
04:52PM 40.8414 -105.9439 141° Southeast 432 497 33,000 -180 Level Denver Center
04:53PM 40.7481 -105.8472 142° Southeast 429 494 32,700 -1,740 Descending Denver Center
04:54PM 40.6539 -105.7478 141° Southeast 432 497 29,500 -3,180 Descending Denver Center
04:55PM 40.5594 -105.6486 141° Southeast 435 501 26,200 -2,940 Descending Denver Center
04:56PM 40.4586 -105.5431 141° Southeast 384 442 23,500 -2,280 Descending Denver Center
04:57PM 40.3819 -105.4639 142° Southeast 357 411 21,600 -1,800 Descending Denver Center
04:58PM 40.3133 -105.3683 133° Southeast 340 391 19,800 -1,800 Descending Denver Center
04:59PM 40.2547 -105.2767 130° Southeast 325 374 18,000 -1,620 Descending Denver Center
05:00PM 40.1975 -105.1869 130° Southeast 321 369 16,500 -1,620 Descending Denver Center
05:01PM 40.1347 -105.0892 130° Southeast 325 374 14,700 -1,320 Descending Denver Center
05:02PM 40.0806 -105.0044 130° Southeast 305 351 13,800 -780 Descending Denver Center
05:03PM 40.0242 -104.9178 130° Southeast 292 336 13,200 -540 Descending Denver Center
05:04PM 39.9797 -104.8481 130° Southeast 255 293 12,700 -540 Descending Denver Center
05:05PM 39.9186 -104.8061 152° Southeast 244 281 12,200 -780 Descending Denver Center
05:06PM 39.8494 -104.8081 181° South 251 289 11,200 -600 Descending Denver Center
05:07PM 39.7753 -104.8094 181° South 249 287 11,000 -600 Descending Denver Center
05:08PM 39.7058 -104.8114 181° South 251 289 10,000 -540 Descending Denver Center
05:09PM 39.6344 -104.8125 181° South 247 284 10,000  Level Denver Center
05:10PM 39.5656 -104.8150 182° South 246 283 10,000  Level Denver Center
05:11PM 39.4931 -104.8167 181° South 264 304 10,000  Level Denver Center
05:13PM 39.4700 -104.7267 108° East 256 295 10,000  Level Denver Center
05:14PM 39.5369 -104.6917 22° Northeast 239 275 10,000 -480 Level Denver Center
05:15PM 39.6033 -104.6906 North 240 276 9,000 -540 Descending Denver Center
05:16PM 39.6731 -104.6894 North 234 269 9,000 -600 Level Denver Center
05:17PM 39.7336 -104.6889 360° North 218 251 7,800 -1,020 Descending Denver Center
05:18PM 39.7878 -104.6886 360° North 186 214 6,900 -840 Descending Denver Center
05:19PM 39.8275 -104.6872 North 148 170 6,100 -780 Descending Denver Center
05:20PM 39.8678 -104.6869 360° North 147 169 5,400 -720 Descending Denver Center